sensor_id;sensor_type;location;lat;lon;timestamp;pressure;altitude;pressure_sealevel;temperature;humidity
40708;BME280;26392;42.696;23.350;2023-02-01T00:01:30;95411.31;;;1.51;100.00
40708;BME280;26392;42.696;23.350;2023-02-01T00:03:55;95415.63;;;1.46;100.00
40708;BME280;26392;42.696;23.350;2023-02-01T00:06:21;95410.41;;;1.38;100.00
40708;BME280;26392;42.696;23.350;2023-02-01T00:08:46;95419.53;;;1.43;100.00
40708;BME280;26392;42.696;23.350;2023-02-01T00:11:12;95422.81;;;1.45;100.00
40708;BME280;26392;42.696;23.350;2023-02-01T00:13:39;95424.69;;;1.45;100.00
40708;BME280;26392;42.696;23.350;2023-02-01T00:16:14;95414.38;;;1.48;100.00
40708;BME280;26392;42.696;23.350;2023-02-01T00:18:43;95420.78;;;1.47;100.00
40708;BME280;26392;42.696;23.350;2023-02-01T00:21:13;95425.13;;;1.48;100.00
40708;BME280;26392;42.696;23.350;2023-02-01T00:23:40;95426.41;;;1.52;100.00
40708;BME280;26392;42.696;23.350;2023-02-01T00:26:19;95420.38;;;1.50;100.00
40708;BME280;26392;42.696;23.350;2023-02-01T00:28:45;95415.06;;;1.57;100.00
40708;BME280;26392;42.696;23.350;2023-02-01T00:31:10;95413.22;;;1.58;100.00
40708;BME280;26392;42.696;23.350;2023-02-01T00:33:36;95406.41;;;1.62;100.00
40708;BME280;26392;42.696;23.350;2023-02-01T00:36:04;95407.03;;;1.57;100.00
40708;BME280;26392;42.696;23.350;2023-02-01T00:38:31;95409.75;;;1.64;100.00
40708;BME280;26392;42.696;23.350;2023-02-01T00:41:05;95404.16;;;1.65;100.00
40708;BME280;26392;42.696;23.350;2023-02-01T00:43:31;95389.44;;;1.54;100.00
40708;BME280;26392;42.696;23.350;2023-02-01T00:45:57;95404.75;;;1.61;100.00
40708;BME280;26392;42.696;23.350;2023-02-01T00:48:23;95400.53;;;1.45;100.00
40708;BME280;26392;42.696;23.350;2023-02-01T00:50:49;95410.88;;;1.48;100.00
40708;BME280;26392;42.696;23.350;2023-02-01T00:53:14;95393.91;;;1.41;100.00
40708;BME280;26392;42.696;23.350;2023-02-01T00:55:39;95394.03;;;1.32;100.00
40708;BME280;26392;42.696;23.350;2023-02-01T00:58:05;95402.69;;;1.28;100.00
40708;BME280;26392;42.696;23.350;2023-02-01T01:00:34;95378.63;;;1.13;100.00
40708;BME280;26392;42.696;23.350;2023-02-01T01:03:00;95407.03;;;1.29;100.00
40708;BME280;26392;42.696;23.350;2023-02-01T01:05:25;95395.41;;;1.22;100.00
40708;BME280;26392;42.696;23.350;2023-02-01T01:07:53;95395.59;;;1.20;100.00
40708;BME280;26392;42.696;23.350;2023-02-01T01:10:18;95396.66;;;1.26;100.00
40708;BME280;26392;42.696;23.350;2023-02-01T01:12:44;95392.97;;;1.27;100.00
40708;BME280;26392;42.696;23.350;2023-02-01T01:15:10;95390.72;;;1.30;100.00
40708;BME280;26392;42.696;23.350;2023-02-01T01:17:35;95395.25;;;1.30;100.00
40708;BME280;26392;42.696;23.350;2023-02-01T01:20:01;95391.16;;;1.34;100.00
40708;BME280;26392;42.696;23.350;2023-02-01T01:22:26;95396.09;;;1.30;100.00
40708;BME280;26392;42.696;23.350;2023-02-01T01:24:51;95374.22;;;1.33;100.00
40708;BME280;26392;42.696;23.350;2023-02-01T01:27:17;95386.66;;;1.41;100.00
40708;BME280;26392;42.696;23.350;2023-02-01T01:29:48;95392.16;;;1.26;100.00
40708;BME280;26392;42.696;23.350;2023-02-01T01:32:13;95388.59;;;1.26;100.00
40708;BME280;26392;42.696;23.350;2023-02-01T01:34:39;95389.78;;;1.17;100.00
40708;BME280;26392;42.696;23.350;2023-02-01T01:37:04;95394.50;;;1.15;100.00
40708;BME280;26392;42.696;23.350;2023-02-01T01:39:29;95399.53;;;1.18;100.00
40708;BME280;26392;42.696;23.350;2023-02-01T01:41:55;95396.13;;;1.09;100.00
40708;BME280;26392;42.696;23.350;2023-02-01T01:47:24;95413.97;;;0.95;100.00
40708;BME280;26392;42.696;23.350;2023-02-01T01:49:50;95416.19;;;0.92;100.00
40708;BME280;26392;42.696;23.350;2023-02-01T01:52:16;95410.34;;;0.81;100.00
40708;BME280;26392;42.696;23.350;2023-02-01T01:54:45;95412.56;;;0.78;100.00
40708;BME280;26392;42.696;23.350;2023-02-01T01:57:17;95406.94;;;0.73;100.00
40708;BME280;26392;42.696;23.350;2023-02-01T01:59:54;95402.44;;;0.73;100.00
40708;BME280;26392;42.696;23.350;2023-02-01T02:02:21;95403.81;;;0.69;100.00
40708;BME280;26392;42.696;23.350;2023-02-01T02:04:47;95398.91;;;0.73;100.00
40708;BME280;26392;42.696;23.350;2023-02-01T02:07:19;95404.84;;;0.68;100.00
40708;BME280;26392;42.696;23.350;2023-02-01T02:09:46;95400.25;;;0.62;100.00
40708;BME280;26392;42.696;23.350;2023-02-01T02:12:11;95397.50;;;0.55;100.00
40708;BME280;26392;42.696;23.350;2023-02-01T02:14:37;95402.59;;;0.50;100.00
40708;BME280;26392;42.696;23.350;2023-02-01T02:23:02;95388.31;;;0.43;100.00
40708;BME280;26392;42.696;23.350;2023-02-01T02:44:49;95399.78;;;0.58;100.00
40708;BME280;26392;42.696;23.350;2023-02-01T02:54:05;95385.38;;;0.59;100.00
40708;BME280;26392;42.696;23.350;2023-02-01T02:56:22;95390.53;;;0.61;100.00
40708;BME280;26392;42.696;23.350;2023-02-01T02:59:08;95382.09;;;0.64;100.00
40708;BME280;26392;42.696;23.350;2023-02-01T03:01:53;95387.69;;;0.62;100.00
40708;BME280;26392;42.696;23.350;2023-02-01T03:04:38;95392.09;;;0.70;100.00
40708;BME280;26392;42.696;23.350;2023-02-01T03:10:41;95398.97;;;0.79;100.00
40708;BME280;26392;42.696;23.350;2023-02-01T03:13:33;95404.13;;;0.81;100.00
40708;BME280;26392;42.696;23.350;2023-02-01T03:19:19;95413.91;;;0.88;100.00
40708;BME280;26392;42.696;23.350;2023-02-01T03:24:22;95422.78;;;0.89;100.00
40708;BME280;26392;42.696;23.350;2023-02-01T03:27:03;95419.09;;;0.90;100.00
40708;BME280;26392;42.696;23.350;2023-02-01T03:29:40;95424.47;;;0.90;100.00
40708;BME280;26392;42.696;23.350;2023-02-01T03:32:09;95425.28;;;0.91;100.00
40708;BME280;26392;42.696;23.350;2023-02-01T03:34:35;95421.13;;;0.88;100.00
40708;BME280;26392;42.696;23.350;2023-02-01T03:37:04;95422.22;;;0.94;100.00
40708;BME280;26392;42.696;23.350;2023-02-01T03:39:41;95429.81;;;0.90;100.00
40708;BME280;26392;42.696;23.350;2023-02-01T03:42:20;95426.28;;;0.89;100.00
40708;BME280;26392;42.696;23.350;2023-02-01T03:45:13;95413.53;;;0.92;100.00
40708;BME280;26392;42.696;23.350;2023-02-01T03:47:41;95425.34;;;0.97;100.00
40708;BME280;26392;42.696;23.350;2023-02-01T03:50:14;95413.78;;;0.97;100.00
40708;BME280;26392;42.696;23.350;2023-02-01T03:52:48;95427.72;;;0.85;100.00
40708;BME280;26392;42.696;23.350;2023-02-01T03:55:17;95425.47;;;0.89;100.00
40708;BME280;26392;42.696;23.350;2023-02-01T03:57:51;95416.59;;;0.88;100.00
40708;BME280;26392;42.696;23.350;2023-02-01T04:00:21;95419.03;;;0.83;100.00
40708;BME280;26392;42.696;23.350;2023-02-01T04:02:48;95428.91;;;0.83;100.00
40708;BME280;26392;42.696;23.350;2023-02-01T04:05:13;95420.22;;;0.81;100.00
40708;BME280;26392;42.696;23.350;2023-02-01T04:07:39;95414.47;;;0.84;100.00
40708;BME280;26392;42.696;23.350;2023-02-01T04:10:05;95418.88;;;0.92;100.00
40708;BME280;26392;42.696;23.350;2023-02-01T04:12:30;95420.63;;;0.99;100.00
40708;BME280;26392;42.696;23.350;2023-02-01T04:14:56;95413.78;;;0.97;100.00
40708;BME280;26392;42.696;23.350;2023-02-01T04:17:21;95408.03;;;1.00;100.00
40708;BME280;26392;42.696;23.350;2023-02-01T04:19:47;95422.34;;;1.07;100.00
40708;BME280;26392;42.696;23.350;2023-02-01T04:22:12;95417.19;;;1.12;100.00
40708;BME280;26392;42.696;23.350;2023-02-01T04:24:38;95412.94;;;1.18;100.00
40708;BME280;26392;42.696;23.350;2023-02-01T04:27:04;95411.47;;;1.15;100.00
40708;BME280;26392;42.696;23.350;2023-02-01T04:29:29;95415.97;;;1.15;100.00
40708;BME280;26392;42.696;23.350;2023-02-01T04:31:55;95412.69;;;1.13;100.00
40708;BME280;26392;42.696;23.350;2023-02-01T04:34:20;95417.69;;;1.22;100.00
40708;BME280;26392;42.696;23.350;2023-02-01T04:36:47;95412.34;;;1.22;100.00
40708;BME280;26392;42.696;23.350;2023-02-01T04:39:13;95409.91;;;1.27;100.00
40708;BME280;26392;42.696;23.350;2023-02-01T04:41:38;95408.69;;;1.30;100.00
40708;BME280;26392;42.696;23.350;2023-02-01T04:44:04;95414.44;;;1.27;100.00
40708;BME280;26392;42.696;23.350;2023-02-01T04:46:29;95412.00;;;1.32;100.00
40708;BME280;26392;42.696;23.350;2023-02-01T04:48:54;95423.13;;;1.29;100.00
40708;BME280;26392;42.696;23.350;2023-02-01T04:51:20;95411.94;;;1.25;100.00
40708;BME280;26392;42.696;23.350;2023-02-01T04:53:45;95427.03;;;1.26;100.00
40708;BME280;26392;42.696;23.350;2023-02-01T04:56:11;95411.56;;;1.28;100.00
40708;BME280;26392;42.696;23.350;2023-02-01T04:58:36;95426.69;;;1.36;100.00
40708;BME280;26392;42.696;23.350;2023-02-01T05:01:03;95428.81;;;1.41;100.00
40708;BME280;26392;42.696;23.350;2023-02-01T05:03:30;95428.97;;;1.39;100.00
40708;BME280;26392;42.696;23.350;2023-02-01T05:05:56;95429.59;;;1.34;100.00
40708;BME280;26392;42.696;23.350;2023-02-01T05:08:21;95442.53;;;1.31;100.00
40708;BME280;26392;42.696;23.350;2023-02-01T05:10:48;95438.00;;;1.31;100.00
40708;BME280;26392;42.696;23.350;2023-02-01T05:13:13;95455.72;;;1.26;100.00
40708;BME280;26392;42.696;23.350;2023-02-01T05:15:57;95448.69;;;1.25;100.00
40708;BME280;26392;42.696;23.350;2023-02-01T05:18:22;95453.88;;;1.26;100.00
40708;BME280;26392;42.696;23.350;2023-02-01T05:20:48;95451.00;;;1.28;100.00
40708;BME280;26392;42.696;23.350;2023-02-01T05:23:13;95446.91;;;1.32;100.00
40708;BME280;26392;42.696;23.350;2023-02-01T05:25:39;95441.41;;;1.40;100.00
40708;BME280;26392;42.696;23.350;2023-02-01T05:28:04;95444.28;;;1.39;100.00
40708;BME280;26392;42.696;23.350;2023-02-01T05:30:29;95445.31;;;1.38;100.00
40708;BME280;26392;42.696;23.350;2023-02-01T05:32:55;95458.72;;;1.38;100.00
40708;BME280;26392;42.696;23.350;2023-02-01T05:35:20;95456.66;;;1.40;100.00
40708;BME280;26392;42.696;23.350;2023-02-01T05:37:46;95450.72;;;1.44;100.00
40708;BME280;26392;42.696;23.350;2023-02-01T05:40:11;95457.97;;;1.50;100.00
40708;BME280;26392;42.696;23.350;2023-02-01T05:42:37;95440.06;;;1.58;100.00
40708;BME280;26392;42.696;23.350;2023-02-01T05:45:03;95444.63;;;1.57;100.00
40708;BME280;26392;42.696;23.350;2023-02-01T05:47:30;95443.19;;;1.61;100.00
40708;BME280;26392;42.696;23.350;2023-02-01T05:49:56;95432.03;;;1.64;100.00
40708;BME280;26392;42.696;23.350;2023-02-01T05:52:21;95445.50;;;1.71;100.00
40708;BME280;26392;42.696;23.350;2023-02-01T05:54:46;95442.81;;;1.71;100.00
40708;BME280;26392;42.696;23.350;2023-02-01T05:57:12;95428.72;;;1.62;100.00
40708;BME280;26392;42.696;23.350;2023-02-01T05:59:38;95455.50;;;1.77;100.00
40708;BME280;26392;42.696;23.350;2023-02-01T06:02:07;95458.25;;;1.90;100.00
40708;BME280;26392;42.696;23.350;2023-02-01T06:04:32;95457.41;;;2.24;100.00
40708;BME280;26392;42.696;23.350;2023-02-01T06:06:58;95454.81;;;2.44;100.00
40708;BME280;26392;42.696;23.350;2023-02-01T06:09:23;95454.19;;;2.49;100.00
40708;BME280;26392;42.696;23.350;2023-02-01T06:11:49;95462.06;;;2.51;100.00
40708;BME280;26392;42.696;23.350;2023-02-01T06:14:14;95456.22;;;2.40;100.00
40708;BME280;26392;42.696;23.350;2023-02-01T06:16:39;95456.38;;;2.32;100.00
40708;BME280;26392;42.696;23.350;2023-02-01T06:19:05;95450.16;;;2.25;100.00
40708;BME280;26392;42.696;23.350;2023-02-01T06:21:30;95459.69;;;2.28;100.00
40708;BME280;26392;42.696;23.350;2023-02-01T06:23:56;95453.28;;;2.29;100.00
40708;BME280;26392;42.696;23.350;2023-02-01T06:26:22;95451.19;;;2.24;100.00
40708;BME280;26392;42.696;23.350;2023-02-01T06:28:48;95453.50;;;2.27;100.00
40708;BME280;26392;42.696;23.350;2023-02-01T06:31:14;95454.91;;;2.23;100.00
40708;BME280;26392;42.696;23.350;2023-02-01T06:33:40;95447.25;;;2.20;100.00
40708;BME280;26392;42.696;23.350;2023-02-01T06:36:07;95453.88;;;2.24;100.00
40708;BME280;26392;42.696;23.350;2023-02-01T06:38:33;95462.56;;;2.26;100.00
40708;BME280;26392;42.696;23.350;2023-02-01T06:41:02;95456.19;;;2.34;100.00
40708;BME280;26392;42.696;23.350;2023-02-01T06:43:28;95462.00;;;2.37;100.00
40708;BME280;26392;42.696;23.350;2023-02-01T06:45:53;95465.13;;;2.41;100.00
40708;BME280;26392;42.696;23.350;2023-02-01T06:48:24;95468.69;;;2.55;100.00
40708;BME280;26392;42.696;23.350;2023-02-01T06:50:49;95471.41;;;2.61;99.62
40708;BME280;26392;42.696;23.350;2023-02-01T06:53:14;95480.72;;;2.59;99.31
40708;BME280;26392;42.696;23.350;2023-02-01T06:55:40;95478.25;;;2.64;98.67
40708;BME280;26392;42.696;23.350;2023-02-01T06:58:05;95481.78;;;2.64;98.70
40708;BME280;26392;42.696;23.350;2023-02-01T07:00:30;95485.09;;;2.66;98.06
40708;BME280;26392;42.696;23.350;2023-02-01T07:02:57;95495.88;;;2.73;97.54
40708;BME280;26392;42.696;23.350;2023-02-01T07:05:23;95492.53;;;2.71;96.95
40708;BME280;26392;42.696;23.350;2023-02-01T07:07:48;95497.50;;;2.67;96.80
40708;BME280;26392;42.696;23.350;2023-02-01T07:10:14;95507.50;;;2.80;96.83
40708;BME280;26392;42.696;23.350;2023-02-01T07:12:39;95508.34;;;2.87;95.79
40708;BME280;26392;42.696;23.350;2023-02-01T07:15:05;95507.28;;;2.88;95.01
40708;BME280;26392;42.696;23.350;2023-02-01T07:17:31;95520.38;;;2.91;94.31
40708;BME280;26392;42.696;23.350;2023-02-01T07:19:57;95513.75;;;2.94;93.97
40708;BME280;26392;42.696;23.350;2023-02-01T07:22:25;95523.06;;;2.98;93.31
40708;BME280;26392;42.696;23.350;2023-02-01T07:24:59;95519.13;;;2.94;93.18
40708;BME280;26392;42.696;23.350;2023-02-01T07:27:25;95504.22;;;2.91;92.40
40708;BME280;26392;42.696;23.350;2023-02-01T07:29:51;95515.16;;;2.90;92.04
40708;BME280;26392;42.696;23.350;2023-02-01T07:32:16;95521.63;;;3.02;91.96
40708;BME280;26392;42.696;23.350;2023-02-01T07:34:44;95523.47;;;3.02;91.95
40708;BME280;26392;42.696;23.350;2023-02-01T07:37:09;95532.19;;;2.97;91.73
40708;BME280;26392;42.696;23.350;2023-02-01T07:39:35;95525.56;;;3.06;91.66
40708;BME280;26392;42.696;23.350;2023-02-01T07:42:00;95513.13;;;2.99;91.38
40708;BME280;26392;42.696;23.350;2023-02-01T07:44:26;95538.44;;;3.11;90.64
40708;BME280;26392;42.696;23.350;2023-02-01T07:46:52;95540.72;;;3.14;90.33
40708;BME280;26392;42.696;23.350;2023-02-01T07:49:17;95532.25;;;3.17;89.86
40708;BME280;26392;42.696;23.350;2023-02-01T07:51:43;95536.16;;;3.21;89.92
40708;BME280;26392;42.696;23.350;2023-02-01T07:54:08;95545.72;;;3.30;89.53
40708;BME280;26392;42.696;23.350;2023-02-01T07:56:34;95548.63;;;3.22;88.79
40708;BME280;26392;42.696;23.350;2023-02-01T07:58:59;95546.34;;;3.26;88.97
40708;BME280;26392;42.696;23.350;2023-02-01T08:01:27;95559.63;;;3.34;88.83
40708;BME280;26392;42.696;23.350;2023-02-01T08:03:56;95562.72;;;3.38;87.36
40708;BME280;26392;42.696;23.350;2023-02-01T08:06:23;95557.13;;;3.32;87.23
40708;BME280;26392;42.696;23.350;2023-02-01T08:08:49;95567.47;;;3.35;87.89
40708;BME280;26392;42.696;23.350;2023-02-01T08:11:16;95552.59;;;3.40;87.04
40708;BME280;26392;42.696;23.350;2023-02-01T08:13:42;95556.09;;;3.47;87.42
40708;BME280;26392;42.696;23.350;2023-02-01T08:16:09;95551.53;;;3.47;86.40
40708;BME280;26392;42.696;23.350;2023-02-01T08:18:35;95556.75;;;3.62;85.23
40708;BME280;26392;42.696;23.350;2023-02-01T08:23:32;95534.78;;;3.58;83.49
40708;BME280;26392;42.696;23.350;2023-02-01T08:28:30;95555.50;;;3.71;81.28
40708;BME280;26392;42.696;23.350;2023-02-01T08:30:55;95561.94;;;3.84;80.24
40708;BME280;26392;42.696;23.350;2023-02-01T08:33:21;95561.94;;;3.84;78.78
40708;BME280;26392;42.696;23.350;2023-02-01T08:35:47;95558.22;;;3.85;77.15
40708;BME280;26392;42.696;23.350;2023-02-01T08:38:12;95558.81;;;4.00;77.49
40708;BME280;26392;42.696;23.350;2023-02-01T08:40:37;95563.59;;;4.11;76.20
40708;BME280;26392;42.696;23.350;2023-02-01T08:43:03;95547.41;;;4.11;74.73
40708;BME280;26392;42.696;23.350;2023-02-01T08:45:29;95548.88;;;4.07;73.43
40708;BME280;26392;42.696;23.350;2023-02-01T08:47:55;95544.13;;;4.09;72.98
40708;BME280;26392;42.696;23.350;2023-02-01T08:50:22;95542.44;;;4.21;72.99
40708;BME280;26392;42.696;23.350;2023-02-01T08:52:48;95544.06;;;4.36;72.81
40708;BME280;26392;42.696;23.350;2023-02-01T08:55:14;95533.88;;;4.44;71.10
40708;BME280;26392;42.696;23.350;2023-02-01T08:57:40;95544.22;;;4.47;68.93
40708;BME280;26392;42.696;23.350;2023-02-01T09:00:08;95537.63;;;4.43;69.51
40708;BME280;26392;42.696;23.350;2023-02-01T09:02:35;95536.97;;;4.55;68.42
40708;BME280;26392;42.696;23.350;2023-02-01T09:05:00;95553.97;;;4.55;67.62
40708;BME280;26392;42.696;23.350;2023-02-01T09:07:26;95540.66;;;4.67;67.55
40708;BME280;26392;42.696;23.350;2023-02-01T09:09:51;95546.22;;;4.85;66.19
40708;BME280;26392;42.696;23.350;2023-02-01T09:12:17;95553.88;;;4.88;65.51
40708;BME280;26392;42.696;23.350;2023-02-01T09:14:43;95560.13;;;4.76;64.94
40708;BME280;26392;42.696;23.350;2023-02-01T09:17:08;95563.06;;;4.74;64.54
40708;BME280;26392;42.696;23.350;2023-02-01T09:19:34;95538.97;;;4.72;65.10
40708;BME280;26392;42.696;23.350;2023-02-01T09:21:59;95561.16;;;4.88;65.34
40708;BME280;26392;42.696;23.350;2023-02-01T09:24:25;95570.03;;;4.95;64.69
40708;BME280;26392;42.696;23.350;2023-02-01T09:26:50;95562.94;;;5.07;64.47
40708;BME280;26392;42.696;23.350;2023-02-01T09:29:16;95557.41;;;4.89;63.39
40708;BME280;26392;42.696;23.350;2023-02-01T09:31:42;95550.97;;;4.83;64.36
40708;BME280;26392;42.696;23.350;2023-02-01T09:34:07;95546.59;;;4.89;64.23
40708;BME280;26392;42.696;23.350;2023-02-01T09:36:33;95545.38;;;4.78;64.42
40708;BME280;26392;42.696;23.350;2023-02-01T09:38:59;95549.53;;;4.81;64.90
40708;BME280;26392;42.696;23.350;2023-02-01T09:47:12;95535.25;;;4.74;65.86
40708;BME280;26392;42.696;23.350;2023-02-01T09:49:46;95524.56;;;4.92;65.64
40708;BME280;26392;42.696;23.350;2023-02-01T09:52:15;95519.78;;;4.94;64.17
40708;BME280;26392;42.696;23.350;2023-02-01T09:54:44;95518.72;;;5.02;63.56
40708;BME280;26392;42.696;23.350;2023-02-01T09:57:20;95516.66;;;4.97;63.88
40708;BME280;26392;42.696;23.350;2023-02-01T10:00:16;95506.72;;;4.84;63.37
40708;BME280;26392;42.696;23.350;2023-02-01T10:02:43;95497.41;;;4.80;64.29
40708;BME280;26392;42.696;23.350;2023-02-01T10:05:16;95497.31;;;4.55;63.42
40708;BME280;26392;42.696;23.350;2023-02-01T10:10:49;95508.16;;;4.35;65.22
40708;BME280;26392;42.696;23.350;2023-02-01T10:13:36;95498.41;;;4.41;64.86
40708;BME280;26392;42.696;23.350;2023-02-01T10:21:45;95493.34;;;4.58;64.19
40708;BME280;26392;42.696;23.350;2023-02-01T10:24:58;95476.69;;;4.74;63.96
40708;BME280;26392;42.696;23.350;2023-02-01T10:27:38;95473.09;;;4.87;62.21
40708;BME280;26392;42.696;23.350;2023-02-01T10:30:25;95480.06;;;5.01;62.48
40708;BME280;26392;42.696;23.350;2023-02-01T10:32:59;95461.78;;;5.03;61.29
40708;BME280;26392;42.696;23.350;2023-02-01T10:35:31;95456.56;;;5.08;61.12
40708;BME280;26392;42.696;23.350;2023-02-01T10:38:00;95462.72;;;5.22;61.38
40708;BME280;26392;42.696;23.350;2023-02-01T10:40:27;95463.97;;;5.20;60.57
40708;BME280;26392;42.696;23.350;2023-02-01T10:42:57;95456.47;;;5.22;59.28
40708;BME280;26392;42.696;23.350;2023-02-01T10:45:26;95465.06;;;5.44;59.71
40708;BME280;26392;42.696;23.350;2023-02-01T10:47:54;95454.84;;;5.46;57.92
40708;BME280;26392;42.696;23.350;2023-02-01T10:55:49;95437.25;;;5.36;58.65
40708;BME280;26392;42.696;23.350;2023-02-01T10:58:18;95454.63;;;5.47;58.33
40708;BME280;26392;42.696;23.350;2023-02-01T11:00:51;95442.06;;;5.59;57.91
40708;BME280;26392;42.696;23.350;2023-02-01T11:05:47;95428.88;;;5.45;56.92
40708;BME280;26392;42.696;23.350;2023-02-01T11:08:18;95442.56;;;5.50;57.17
40708;BME280;26392;42.696;23.350;2023-02-01T11:10:44;95450.22;;;5.53;57.59
40708;BME280;26392;42.696;23.350;2023-02-01T11:13:15;95454.00;;;5.52;57.75
40708;BME280;26392;42.696;23.350;2023-02-01T11:15:44;95436.16;;;5.69;57.71
40708;BME280;26392;42.696;23.350;2023-02-01T11:18:18;95447.34;;;5.73;57.58
40708;BME280;26392;42.696;23.350;2023-02-01T11:20:46;95447.53;;;5.53;56.42
40708;BME280;26392;42.696;23.350;2023-02-01T11:23:19;95439.53;;;5.65;56.70
40708;BME280;26392;42.696;23.350;2023-02-01T11:25:58;95431.47;;;5.83;56.44
40708;BME280;26392;42.696;23.350;2023-02-01T11:28:34;95426.19;;;5.95;56.16
40708;BME280;26392;42.696;23.350;2023-02-01T11:31:04;95426.53;;;5.98;56.30
40708;BME280;26392;42.696;23.350;2023-02-01T11:33:33;95406.00;;;5.91;55.84
40708;BME280;26392;42.696;23.350;2023-02-01T11:36:07;95422.13;;;6.04;55.97
40708;BME280;26392;42.696;23.350;2023-02-01T11:38:34;95404.31;;;6.15;55.72
40708;BME280;26392;42.696;23.350;2023-02-01T11:41:12;95423.13;;;6.28;55.06
40708;BME280;26392;42.696;23.350;2023-02-01T11:43:56;95420.25;;;6.23;54.27
40708;BME280;26392;42.696;23.350;2023-02-01T11:46:32;95407.84;;;6.15;54.79
40708;BME280;26392;42.696;23.350;2023-02-01T11:49:22;95402.16;;;6.05;55.34
40708;BME280;26392;42.696;23.350;2023-02-01T11:52:37;95408.75;;;6.09;55.96
40708;BME280;26392;42.696;23.350;2023-02-01T12:00:34;95392.78;;;5.82;56.33
40708;BME280;26392;42.696;23.350;2023-02-01T12:08:52;95383.88;;;6.00;56.45
40708;BME280;26392;42.696;23.350;2023-02-01T12:11:43;95385.97;;;5.98;55.74
40708;BME280;26392;42.696;23.350;2023-02-01T12:20:15;95366.31;;;5.84;56.73
40708;BME280;26392;42.696;23.350;2023-02-01T12:26:13;95386.25;;;5.90;57.19
40708;BME280;26392;42.696;23.350;2023-02-01T12:47:36;95392.66;;;6.33;55.38
40708;BME280;26392;42.696;23.350;2023-02-01T12:50:14;95392.81;;;6.38;54.33
40708;BME280;26392;42.696;23.350;2023-02-01T12:52:49;95382.13;;;6.43;53.89
40708;BME280;26392;42.696;23.350;2023-02-01T12:55:34;95391.53;;;6.59;53.60
40708;BME280;26392;42.696;23.350;2023-02-01T12:58:13;95388.09;;;6.63;53.87
40708;BME280;26392;42.696;23.350;2023-02-01T13:00:49;95374.25;;;6.71;53.28
40708;BME280;26392;42.696;23.350;2023-02-01T13:03:36;95379.13;;;6.81;52.55
40708;BME280;26392;42.696;23.350;2023-02-01T13:06:17;95381.25;;;6.79;52.84
40708;BME280;26392;42.696;23.350;2023-02-01T13:08:48;95381.06;;;6.62;52.29
40708;BME280;26392;42.696;23.350;2023-02-01T13:11:20;95376.19;;;6.53;52.90
40708;BME280;26392;42.696;23.350;2023-02-01T13:14:00;95364.25;;;6.42;53.23
40708;BME280;26392;42.696;23.350;2023-02-01T13:16:49;95370.88;;;6.27;53.57
40708;BME280;26392;42.696;23.350;2023-02-01T13:19:21;95375.84;;;6.31;54.05
40708;BME280;26392;42.696;23.350;2023-02-01T13:22:00;95377.78;;;6.23;53.74
40708;BME280;26392;42.696;23.350;2023-02-01T13:24:40;95377.63;;;6.37;53.65
40708;BME280;26392;42.696;23.350;2023-02-01T13:27:11;95380.84;;;6.45;53.04
40708;BME280;26392;42.696;23.350;2023-02-01T13:30:14;95368.97;;;6.46;52.48
40708;BME280;26392;42.696;23.350;2023-02-01T13:35:35;95375.22;;;6.28;52.77
40708;BME280;26392;42.696;23.350;2023-02-01T13:40:45;95383.28;;;6.17;52.93
40708;BME280;26392;42.696;23.350;2023-02-01T13:43:15;95386.19;;;6.15;52.93
40708;BME280;26392;42.696;23.350;2023-02-01T13:45:46;95383.50;;;6.34;55.52
40708;BME280;26392;42.696;23.350;2023-02-01T13:48:24;95371.81;;;6.52;54.30
40708;BME280;26392;42.696;23.350;2023-02-01T13:50:58;95367.09;;;6.77;54.49
40708;BME280;26392;42.696;23.350;2023-02-01T13:53:30;95371.50;;;6.90;54.03
40708;BME280;26392;42.696;23.350;2023-02-01T13:58:31;95374.75;;;7.10;52.34
40708;BME280;26392;42.696;23.350;2023-02-01T14:03:52;95375.50;;;7.29;51.73
40708;BME280;26392;42.696;23.350;2023-02-01T14:09:11;95377.50;;;7.34;50.74
40708;BME280;26392;42.696;23.350;2023-02-01T14:12:32;95384.28;;;7.13;50.80
40708;BME280;26392;42.696;23.350;2023-02-01T14:14:44;95376.16;;;7.13;51.35
40708;BME280;26392;42.696;23.350;2023-02-01T14:19:35;95366.41;;;7.12;51.49
40708;BME280;26392;42.696;23.350;2023-02-01T14:24:54;95354.09;;;6.98;51.68
40708;BME280;26392;42.696;23.350;2023-02-01T14:27:25;95365.97;;;6.97;51.59
40708;BME280;26392;42.696;23.350;2023-02-01T14:30:05;95354.94;;;6.98;51.97
40708;BME280;26392;42.696;23.350;2023-02-01T14:32:38;95352.31;;;6.91;51.81
40708;BME280;26392;42.696;23.350;2023-02-01T14:35:12;95349.09;;;6.83;52.39
40708;BME280;26392;42.696;23.350;2023-02-01T14:37:43;95343.97;;;6.63;52.52
40708;BME280;26392;42.696;23.350;2023-02-01T14:48:41;95356.91;;;6.61;53.57
40708;BME280;26392;42.696;23.350;2023-02-01T14:50:46;95364.00;;;6.62;53.70
40708;BME280;26392;42.696;23.350;2023-02-01T14:58:18;95364.66;;;6.57;53.03
40708;BME280;26392;42.696;23.350;2023-02-01T15:00:52;95367.19;;;6.40;53.33
40708;BME280;26392;42.696;23.350;2023-02-01T15:06:01;95375.22;;;6.28;54.05
40708;BME280;26392;42.696;23.350;2023-02-01T15:08:34;95368.09;;;6.16;54.21
40708;BME280;26392;42.696;23.350;2023-02-01T15:11:04;95367.72;;;6.12;54.91
40708;BME280;26392;42.696;23.350;2023-02-01T15:13:31;95373.75;;;6.14;54.72
40708;BME280;26392;42.696;23.350;2023-02-01T15:16:11;95367.72;;;6.12;55.29
40708;BME280;26392;42.696;23.350;2023-02-01T15:18:37;95371.69;;;6.10;55.30
40708;BME280;26392;42.696;23.350;2023-02-01T15:21:04;95370.06;;;6.09;55.62
40708;BME280;26392;42.696;23.350;2023-02-01T15:23:31;95363.22;;;6.06;56.24
40708;BME280;26392;42.696;23.350;2023-02-01T15:25:57;95369.25;;;6.08;56.14
40708;BME280;26392;42.696;23.350;2023-02-01T15:28:24;95358.03;;;6.04;56.32
40708;BME280;26392;42.696;23.350;2023-02-01T15:31:00;95351.44;;;6.00;56.21
40708;BME280;26392;42.696;23.350;2023-02-01T15:33:27;95351.28;;;5.95;55.83